• Join FlightAware (Why Join?)
  • Login
  • US Flag 
06:22AM EDT


 

Airport Tracker/Info


-or-


 

Live Flight TrackerFlight Track Log ✈ EJM685 ✈ 04-May-2014 ✈ EGWU / NHT - KTEB

Flight Track Log - Related Links

Times and Time Zones

All times are in EDT time to prevent confusion due to time zone crossing. See the EJM685 flight status page for this flight to view local times or setup timezone preferences in your user account.

Time Position Orientation Groundspeed Altitude Reporting Facility
EDT Latitude Longitude Course Direction KTS MPH feet Rate Location/Type
12:30PM 51.5492 -0.4787 311° West 200 230 1,800  Level FlightAware UK
12:30PM 51.5566 -0.4927 311° West 210 242 2,400 1,800 Climbing FlightAware UK
12:30PM 51.5728 -0.5030 338° Northwest 214 246 2,700 540 Climbing FlightAware UK
12:32PM 51.6815 -0.6344 323° Northwest 262 302 3,700 540 Climbing FlightAware UK
12:32PM 51.6950 -0.6619 308° West 258 297 4,000 1,500 Climbing FlightAware UK
12:33PM 51.7086 -0.6891 309° West 264 304 4,600 1,980 Climbing FlightAware UK
12:33PM 51.7223 -0.7166 309° West 266 306 5,200 1,860 Climbing FlightAware UK
12:34PM 51.7386 -0.7817 292° West 264 304 6,300 1,740 Climbing FlightAware UK
12:34PM 51.7374 -0.8054 265° West 268 308 6,600 1,500 Climbing FlightAware UK
12:34PM 51.7327 -0.8281 252° West 270 311 6,900 720 Climbing FlightAware UK
12:34PM 51.7248 -0.8487 238° Southwest 272 313 6,900 240 Level FlightAware UK
12:35PM 51.6982 -0.8915 225° Southwest 272 313 7,100 2,040 Climbing FlightAware UK
12:36PM 51.6202 -1.0159 225° Southwest 316 364 10,800 2,460 Climbing FlightAware UK
12:37PM 51.6049 -1.0862 251° West 342 394 11,800 1,560 Climbing FlightAware UK
12:37PM 51.5898 -1.2234 260° West 352 405 13,000 840 Climbing FlightAware UK
12:38PM 51.5831 -1.3016 262° West 352 405 13,000  Level FlightAware UK
12:39PM 51.5838 -1.3941 271° West 348 400 13,000 180 Level FlightAware UK
12:39PM 51.5907 -1.4706 278° West 348 400 13,200 2,160 Climbing FlightAware UK
12:40PM 51.6132 -1.6561 281° West 360 414 16,700 2,820 Climbing FlightAware UK
12:41PM 51.6230 -1.7361 281° West 366 421 18,000 2,520 Climbing FlightAware UK
12:42PM 51.6470 -1.9324 281° West 384 442 21,000 2,520 Climbing FlightAware UK
12:42PM 51.6568 -2.0172 281° West 388 447 22,300 2,340 Climbing FlightAware UK
12:44PM 51.6785 -2.2076 281° West 404 465 24,800 2,220 Climbing FlightAware UK
12:44PM 51.6905 -2.3144 280° West 408 470 26,100 2,160 Climbing FlightAware UK
12:45PM 51.7076 -2.4204 285° West 410 472 27,400 2,160 Climbing FlightAware UK
12:45PM 51.7256 -2.5269 285° West 414 476 28,700 1,860 Climbing FlightAware UK
12:46PM 51.7408 -2.6164 285° West 420 483 29,500 1,560 Climbing FlightAware UK
12:47PM 51.7625 -2.7441 285° West 428 493 30,600 1,860 Climbing FlightAware UK
12:47PM 51.7877 -2.8913 286° West 424 488 32,300 2,100 Climbing FlightAware UK
12:48PM 51.8192 -3.0721 286° West 418 481 34,400 1,980 Climbing FlightAware UK
12:49PM 51.8350 -3.1619 286° West 418 481 35,300 1,440 Climbing FlightAware UK
12:50PM 51.8611 -3.3049 287° West 422 486 36,300 1,620 Climbing FlightAware UK
12:50PM 51.8813 -3.4128 287° West 414 476 37,600 1,800 Climbing FlightAware UK
12:51PM 51.8977 -3.5016 287° West 414 476 38,300 1,080 Climbing FlightAware UK
12:51PM 51.9138 -3.5907 286° West 420 483 38,700 900 Climbing FlightAware UK
12:52PM 51.9306 -3.6813 287° West 424 488 39,200 1,500 Climbing FlightAware UK
12:52PM 51.9478 -3.7714 287° West 414 476 40,200 1,620 Climbing FlightAware UK
12:53PM 51.9649 -3.8770 285° West 408 470 41,000 780 Climbing FlightAware UK
12:54PM 51.9907 -4.0377 285° West 416 479 41,400 420 Climbing FlightAware UK
12:54PM 52.0052 -4.1282 285° West 420 483 41,600 360 Climbing FlightAware UK
12:55PM 52.0258 -4.2575 285° West 426 490 41,900 360 Climbing FlightAware UK
12:55PM 52.0408 -4.3512 285° West 430 495 42,100 360 Climbing FlightAware UK
12:56PM 52.0555 -4.4455 284° West 434 499 42,300 480 Climbing FlightAware UK
12:56PM 52.0702 -4.5403 284° West 436 502 42,600 600 Climbing FlightAware UK
12:57PM 52.0851 -4.6357 284° West 436 502 42,900 360 Climbing FlightAware UK
12:57PM 52.0998 -4.7312 284° West 438 504 43,000 60 Climbing FlightAware UK
12:58PM 52.1144 -4.8271 284° West 440 506 43,000  Level FlightAware UK
12:58PM 52.1320 -4.9418 284° West 440 506 43,000  Level FlightAware UK
12:59PM 52.1465 -5.0380 284° West 440 506 43,000  Level FlightAware UK
12:59PM 52.1646 -5.1331 287° West 442 509 43,000  Level FlightAware UK
01:00PM 52.1865 -5.2264 291° West 444 511 43,000  Level FlightAware UK
01:00PM 52.2085 -5.3199 291° West 444 511 43,000  Level FlightAware UK
01:01PM 52.2307 -5.4135 291° West 444 511 43,000  Level FlightAware UK
01:01PM 52.2527 -5.5075 291° West 444 511 43,000  Level FlightAware UK
01:02PM 52.2743 -5.6012 291° West 442 509 43,000  Level FlightAware UK
01:02PM 52.2960 -5.6948 291° West 444 511 43,000  Level FlightAware UK
01:03PM 52.3177 -5.7886 291° West 446 513 43,000  Level FlightAware UK
01:03PM 52.3394 -5.8830 291° West 450 518 43,000  Level FlightAware UK
01:04PM 52.3612 -5.9784 291° West 450 518 43,000  Level FlightAware UK
01:05PM 52.3873 -6.0934 290° West 452 520 43,000  Level FlightAware UK
01:05PM 52.4089 -6.1892 290° West 448 516 43,000  Level FlightAware UK
01:06PM 52.4303 -6.2846 290° West 444 511 43,000  Level FlightAware UK
01:06PM 52.4515 -6.3791 290° West 442 509 43,000  Level FlightAware UK
01:07PM 52.4723 -6.4718 290° West 442 509 43,000  Level FlightAware UK
01:07PM 52.4931 -6.5661 290° West 442 509 43,000  Level FlightAware UK
01:08PM 52.5182 -6.6795 290° West 444 511 43,000  Level FlightAware UK
01:08PM 52.5390 -6.7742 290° West 442 509 43,000  Level FlightAware UK
01:09PM 52.5597 -6.8689 290° West 442 509 43,000  Level FlightAware UK
01:09PM 52.5804 -6.9635 290° West 442 509 43,000  Level FlightAware UK
01:10PM 52.6008 -7.0584 290° West 444 511 43,000  Level FlightAware UK
01:10PM 52.6213 -7.1535 290° West 448 516 43,000  Level FlightAware UK
01:11PM 52.6459 -7.2684 289° West 450 518 43,000  Level FlightAware UK
01:11PM 52.6666 -7.3654 289° West 450 518 43,000  Level FlightAware UK
01:12PM 52.6873 -7.4622 289° West 448 516 43,000  Level FlightAware UK
01:12PM 52.7077 -7.5586 289° West 446 513 43,000  Level FlightAware UK
01:13PM 52.7278 -7.6546 289° West 442 509 43,000  Level FlightAware UK
01:13PM 52.7477 -7.7494 289° West 440 506 43,000  Level FlightAware UK
01:14PM 52.7673 -7.8435 289° West 440 506 43,000  Level FlightAware UK
01:14PM 52.7869 -7.9386 289° West 442 509 43,000  Level FlightAware UK
01:15PM 52.8068 -8.0343 289° West 446 513 43,000  Level FlightAware UK
01:15PM 52.8265 -8.1308 289° West 446 513 43,000  Level FlightAware UK
01:16PM 52.8463 -8.2274 289° West 444 511 43,000  Level FlightAware UK
01:16PM 52.8659 -8.3237 289° West 444 511 43,000  Level FlightAware UK
01:17PM 52.8892 -8.4389 289° West 444 511 43,000  Level FlightAware UK
01:17PM 52.9088 -8.5354 289° West 446 513 43,000  Level FlightAware UK
01:18PM 52.9281 -8.6323 288° West 448 516 43,000  Level FlightAware UK
01:18PM 52.9474 -8.7295 288° West 446 513 43,000  Level FlightAware UK
01:19PM 52.9667 -8.8267 288° West 442 509 43,000  Level FlightAware UK
01:19PM 52.9859 -8.9234 288° West 440 506 43,000  Level FlightAware UK
02:16PM 55.0000 -20.0000 294° West 485 558 43,000  Level ETMS Enhanced Traffic Management System
03:00PM 57.0000 -30.0000 274° West 489 563 43,000  Level ETMS Enhanced Traffic Management System
03:00PM 57.0000 -30.0000 274° West 489 563 43,000  Level ETMS Enhanced Traffic Management System
03:39PM 57.0000 -40.0000 255° West 485 558 43,000  Level ETMS Enhanced Traffic Management System
04:26PM 55.0000 -50.0000 251° West 465 535 43,000  Level ETMS Enhanced Traffic Management System
04:47PM 53.8167 -55.0333 240° Southwest 470 541 43,000  Level Moncton Center
04:48PM 53.6950 -55.3055 241° Southwest  Level FlightAware Approximate
04:48PM 53.7500 -55.2500 243° Southwest 470 541 43,000  Level Moncton Center
04:49PM 53.6305 -55.4961 240° Southwest  Level FlightAware Approximate
04:49PM 53.7000 -55.4333 245° Southwest 480 552 43,000  Level Moncton Center
04:50PM 53.5658 -55.6862 240° Southwest  Level FlightAware Approximate
04:50PM 53.6333 -55.6333 241° Southwest 470 541 43,000  Level Gander Center
04:51PM 53.5007 -55.8757 240° Southwest  Level FlightAware Approximate
04:51PM 53.5667 -55.8333 241° Southwest 480 552 43,000  Level Moncton Center
04:52PM 53.4353 -56.0646 240° Southwest  Level FlightAware Approximate
04:52PM 53.5000 -56.0333 241° Southwest 480 552 43,000  Level Moncton Center
04:53PM 53.4333 -56.2167 239° Southwest 480 552 43,000  Level Moncton Center
04:54PM 53.3833 -56.4000 245° Southwest 480 552 43,000  Level Moncton Center
04:55PM 53.3167 -56.6167 243° Southwest 480 552 43,000  Level Moncton Center
04:56PM 53.2500 -56.7833 236° Southwest 470 541 43,000  Level Moncton Center
04:57PM 53.1833 -57.0000 243° Southwest 470 541 43,000  Level Moncton Center
04:58PM 53.1333 -57.1667 243° Southwest 480 552 43,000  Level Moncton Center
04:59PM 53.0500 -57.3833 237° Southwest 480 552 43,000  Level Moncton Center
05:00PM 53.0000 -57.5500 244° Southwest 470 541 43,000  Level Moncton Center
05:01PM 52.9333 -57.7667 243° Southwest 470 541 43,000  Level Moncton Center
05:02PM 52.8667 -57.9333 237° Southwest 470 541 43,000  Level Moncton Center
05:03PM 52.8000 -58.1167 239° Southwest 470 541 43,000  Level Moncton Center
05:04PM 52.7333 -58.3167 241° Southwest 470 541 43,000  Level Moncton Center
05:05PM 52.6667 -58.5000 239° Southwest 470 541 43,000  Level Moncton Center
05:06PM 52.6000 -58.7000 241° Southwest 470 541 43,000  Level Moncton Center
05:07PM 52.5333 -58.9000 241° Southwest 480 552 43,000  Level Moncton Center
05:08PM 52.4667 -59.0667 237° Southwest 480 552 43,000  Level Moncton Center
05:09PM 52.4000 -59.2667 241° Southwest 480 552 43,000  Level Moncton Center
05:10PM 52.3167 -59.4500 233° Southwest 480 552 43,000  Level Moncton Center
05:11PM 52.2667 -59.6333 246° West 480 552 43,000  Level Moncton Center
05:12PM 52.1833 -59.8167 233° Southwest 480 552 43,000  Level Moncton Center
05:13PM 52.1167 -60.0167 242° Southwest 470 541 43,000  Level Moncton Center
05:14PM 52.0500 -60.1833 237° Southwest 470 541 43,000  Level Moncton Center
05:15PM 51.9833 -60.3500 237° Southwest 470 541 43,000  Level Moncton Center
05:16PM 51.9000 -60.5500 236° Southwest 470 541 43,000  Level Moncton Center
05:17PM 51.8500 -60.7167 244° Southwest 470 541 43,000  Level Moncton Center
05:18PM 51.7667 -60.9167 236° Southwest 470 541 43,000  Level Moncton Center
05:19PM 51.6833 -61.1000 234° Southwest 470 541 43,000  Level Gander Center
05:20PM 51.6333 -61.2667 244° Southwest 480 552 43,000  Level Moncton Center
05:21PM 51.5667 -61.4333 237° Southwest 480 552 43,000  Level Moncton Center
05:22PM 51.4833 -61.6333 236° Southwest 480 552 43,000  Level Moncton Center
05:23PM 51.4000 -61.8167 234° Southwest 480 552 43,000  Level Moncton Center
05:24PM 51.3333 -62.0000 240° Southwest 480 552 43,000  Level Gander Center
05:25PM 51.2667 -62.1667 237° Southwest 480 552 43,000  Level Gander Center
05:26PM 51.2000 -62.3333 237° Southwest 480 552 43,000  Level Moncton Center
05:27PM 51.1167 -62.5333 236° Southwest 480 552 43,000  Level Moncton Center
05:28PM 51.0500 -62.7000 238° Southwest 480 552 43,000  Level Moncton Center
05:29PM 50.9667 -62.8833 234° Southwest 480 552 43,000  Level Gander Center
05:30PM 50.9000 -63.0500 238° Southwest 480 552 43,000  Level Moncton Center
05:31PM 50.8167 -63.2333 234° Southwest 480 552 43,000  Level Moncton Center
05:32PM 50.7500 -63.4000 238° Southwest 480 552 43,000  Level Moncton Center
05:33PM 50.6833 -63.5833 240° Southwest 480 552 43,000  Level Moncton Center
05:34PM 50.6000 -63.7667 234° Southwest 480 552 43,000  Level Moncton Center
05:35PM 50.5333 -63.9167 235° Southwest 480 552 43,000  Level Moncton Center
05:36PM 50.4500 -64.1000 235° Southwest 480 552 43,000  Level Moncton Center
05:37PM 50.3667 -64.2667 232° Southwest 480 552 43,000  Level Moncton Center
05:38PM 50.3000 -64.4167 235° Southwest 480 552 43,000  Level Moncton Center
05:39PM 50.2167 -64.6000 235° Southwest 490 564 43,000  Level Moncton Center
05:40PM 50.1500 -64.7833 240° Southwest 490 564 43,000  Level Moncton Center
05:41PM 50.0667 -64.9667 235° Southwest 480 552 43,000  Level Moncton Center
05:42PM 49.9667 -65.1333 227° Southwest 480 552 43,000  Level Moncton Center
05:43PM 49.9000 -65.3000 238° Southwest 480 552 43,000  Level Moncton Center
05:44PM 49.8167 -65.4667 232° Southwest 480 552 43,000  Level Moncton Center
05:45PM 49.7500 -65.6167 236° Southwest 480 552 43,000  Level Moncton Center
05:46PM 49.6667 -65.8000 235° Southwest 480 552 43,000  Level Moncton Center
05:47PM 49.5833 -65.9667 232° Southwest 480 552 43,000  Level Moncton Center
05:48PM 49.5167 -66.1167 236° Southwest 480 552 43,000  Level Moncton Center
05:49PM 49.4333 -66.3000 235° Southwest 480 552 43,000  Level Moncton Center
05:50PM 49.3500 -66.4500 230° Southwest 480 552 43,000  Level Moncton Center
05:51PM 49.2667 -66.6333 235° Southwest 470 541 43,000  Level Moncton Center
05:52PM 49.2000 -66.7833 236° Southwest 470 541 43,000  Level Moncton Center
05:53PM 49.1167 -66.9500 233° Southwest 480 552 43,000  Level Moncton Center
05:54PM 49.0333 -67.1000 230° Southwest 470 541 43,000  Level Moncton Center
05:55PM 48.9500 -67.2833 235° Southwest 470 541 43,000  Level Moncton Center
05:56PM 48.8833 -67.4333 236° Southwest 470 541 43,000  Level Moncton Center
05:57PM 48.8000 -67.5667 227° Southwest 470 541 43,000  Level Moncton Center
05:58PM 48.7000 -67.7500 230° Southwest 470 541 43,000  Level Moncton Center
05:59PM 48.6333 -67.9000 236° Southwest 480 552 43,000  Level Moncton Center
06:00PM 48.5500 -68.0667 233° Southwest 470 541 43,000  Level Moncton Center
06:01PM 48.4667 -68.2167 230° Southwest 470 541 43,000  Level Moncton Center
06:02PM 48.3833 -68.3833 233° Southwest 470 541 43,000  Level Moncton Center
06:03PM 48.3167 -68.5333 236° Southwest 470 541 43,000  Level Moncton Center
06:04PM 48.2333 -68.6667 227° Southwest 470 541 43,000  Level Moncton Center
06:05PM 48.1500 -68.8167 230° Southwest 470 541 43,000  Level Moncton Center
06:06PM 48.0667 -69.0000 236° Southwest 470 541 43,000  Level Moncton Center
06:07PM 47.9833 -69.1500 230° Southwest 470 541 43,000  Level Moncton Center
06:08PM 47.9167 -69.3000 236° Southwest 470 541 43,000  Level Moncton Center
06:09PM 47.8167 -69.4667 228° Southwest 470 541 43,000  Level Moncton Center
06:10PM 47.7500 -69.6000 233° Southwest 470 541 43,000  Level Moncton Center
06:11PM 47.6333 -69.7167 214° Southwest 470 541 43,000  Level Moncton Center
06:12PM 47.5167 -69.8000 206° Southwest 470 541 43,000  Level Moncton Center
06:13PM 47.4000 -69.9167 214° Southwest 470 541 43,000  Level Moncton Center
06:14PM 47.3000 -70.0333 218° Southwest 470 541 43,000  Level Moncton Center
06:15PM 47.1833 -70.1167 206° Southwest 470 541 43,000  Level Moncton Center
06:16PM 47.0833 -70.2333 218° Southwest 470 541 43,000  Level Moncton Center
06:17PM 46.9833 -70.3167 210° Southwest 470 541 43,000  Level Moncton Center
06:18PM 46.8500 -70.4167 207° Southwest 470 541 43,000  Level Moncton Center
06:19PM 46.7500 -70.5333 219° Southwest 470 541 43,000  Level Moncton Center
06:20PM 46.6333 -70.6167 206° Southwest 470 541 43,000  Level Moncton Center
06:21PM 46.5167 -70.7167 211° Southwest 470 541 43,000  Level Moncton Center
06:22PM 46.4167 -70.8333 219° Southwest 470 541 43,000  Level Moncton Center
06:23PM 46.2833 -70.9333 207° Southwest 470 541 43,000  Level Moncton Center
06:24PM 46.1833 -71.0167 210° Southwest 470 541 43,000  Level Moncton Center
06:25PM 46.0833 -71.1333 219° Southwest 470 541 43,000  Level Moncton Center
06:26PM 45.9667 -71.2333 211° Southwest 470 541 43,000  Level Moncton Center
06:27PM 45.8500 -71.3167 206° Southwest 470 541 43,000  Level Moncton Center
06:28PM 45.7333 -71.4333 215° Southwest 480 552 43,000  Level Moncton Center
06:29PM 45.6167 -71.5333 211° Southwest 480 552 43,000  Level Moncton Center
06:29PM 45.5669 -71.5714 208° Southwest 476 548 43,000  Level Boston Center
06:30PM 45.4833 -71.6167 201° Southwest 470 541 43,000  Level Montreal Center
06:31PM 45.3500 -71.7167 208° Southwest 470 541 43,000  Level Montreal Center
06:32PM 45.2667 -71.8333 225° Southwest 470 541 43,000  Level Montreal Center
06:33PM 45.1667 -71.9333 215° Southwest 470 541 43,000  Level Montreal Center
06:34PM 45.0500 -72.0500 215° Southwest 470 541 43,000  Level Montreal Center
06:35PM 44.9500 -72.1500 215° Southwest 470 541 43,000  Level Montreal Center
06:36PM 44.8975 -72.2292 227° Southwest 472 543 43,000  Level Boston Center
06:37PM 44.7917 -72.3422 217° Southwest 473 544 43,000  Level Boston Center
06:38PM 44.6853 -72.4519 216° Southwest 474 545 43,000  Level Boston Center
06:39PM 44.5781 -72.5633 217° Southwest 474 545 43,000  Level Boston Center
06:40PM 44.4706 -72.6747 216° Southwest 474 545 43,000  Level Boston Center
06:41PM 44.3636 -72.7847 216° Southwest 474 545 43,000  Level Boston Center
06:42PM 44.2583 -72.8922 216° Southwest 470 541 43,000  Level Boston Center
06:43PM 44.1522 -73.0000 216° Southwest 470 541 43,000  Level Boston Center
06:44PM 44.0456 -73.1072 216° Southwest 470 541 43,000 -300 Level Boston Center
06:45PM 43.9358 -73.2111 214° Southwest 473 544 42,500 -1,260 Descending Boston Center
06:46PM 43.7856 -73.2878 200° South 481 554 40,400 -2,040 Descending Boston Center
06:47PM 43.6608 -73.3500 200° South 479 551 38,400 -2,220 Descending Boston Center
06:48PM 43.5356 -73.4136 200° South 479 551 36,000 -3,180 Descending Boston Center
06:49PM 43.4094 -73.4756 200° South 480 552 32,000 -4,140 Descending Boston Center
06:50PM 43.2828 -73.5392 200° South 484 557 27,700 -3,840 Descending Boston Center
06:51PM 43.1625 -73.5989 200° South 464 534 24,200 -2,280 Descending Boston Center
06:52PM 43.0464 -73.6567 200° South 433 498 23,100 -1,800 Descending Boston Center
06:53PM 42.9308 -73.7139 200° South 437 503 20,500 -2,760 Descending Boston Center
06:54PM 42.8069 -73.7747 200° South 430 495 17,400 -2,280 Descending Boston Center
06:55PM 42.7022 -73.8375 204° Southwest 408 470 16,000 -720 Descending Boston Center
06:56PM 42.6089 -73.9067 209° Southwest 385 443 16,000  Level Boston Center
06:57PM 42.5114 -73.9794 209° Southwest 374 430 16,000  Level Boston Center
06:58PM 42.4197 -74.0467 208° Southwest 374 430 16,100  Climbing Boston Center
06:59PM 42.3239 -74.1178 209° Southwest 376 433 16,000  Descending Boston Center
07:00PM 42.2314 -74.1858 209° Southwest 377 434 16,100  Climbing Boston Center
07:01PM 42.1392 -74.2531 208° Southwest 377 434 16,000 -840 Descending Boston Center
07:02PM 42.0400 -74.3250 208° Southwest 377 434 14,500 -1,620 Descending Boston Center
07:03PM 41.9508 -74.3900 208° Southwest 370 426 12,800 -1,560 Descending Boston Center
07:04PM 41.8706 -74.4472 208° Southwest 329 379 11,300 -1,440 Descending Boston Center
07:05PM 41.7969 -74.4994 208° Southwest 301 346 9,900 -1,380 Descending Boston Center
07:06PM 41.7169 -74.5333 198° South 287 330 8,500 -1,320 Descending Boston Center
07:07PM 41.6375 -74.5483 188° South 289 333 7,200 -1,200 Descending Boston Center
07:08PM 41.5600 -74.5628 188° South 286 329 6,100 -600 Descending Boston Center
07:09PM 41.4769 -74.5800 189° South 285 328 6,100 -60 Level Boston Center
07:10PM 41.3994 -74.5944 188° South 284 327 6,000 -60 Descending Boston Center
07:11PM 41.3258 -74.6244 197° South 281 323 6,000  Level Boston Center
07:12PM 41.2525 -74.6436 191° South 276 318 6,100 -360 Climbing Boston Center
07:13PM 41.2000 -74.5667 132° Southeast 298 343 5,400 -1,080 Descending New York TRACON
07:14PM 41.1667 -74.4667 114° Southeast 288 331 4,100 -720 Descending New York TRACON
07:15PM 41.1333 -74.3833 118° Southeast 278 320 4,000  Descending New York TRACON
07:16PM 41.1000 -74.2833 114° Southeast 286 329 4,100  Climbing New York TRACON
07:17PM 41.0667 -74.1833 114° Southeast 289 333 4,000 -600 Descending New York TRACON
07:18PM 41.0333 -74.1000 118° Southeast 273 314 3,000 -960 Descending New York TRACON
07:19PM 40.9833 -74.0500 143° Southeast 236 272 2,100 -780 Descending New York TRACON
07:20PM 40.9333 -74.0500 180° South 159 183 1,500 -600 Descending New York TRACON
07:21PM 40.9000 -74.0167 143° Southeast 166 191 1,000 -540 Descending New York TRACON
07:23PM 40.8500 -74.0500 153° Southeast  Level FlightAware Approximate
07:30PM 40.8501 -74.0608 153° Southeast  Level Estimated
07:31PM 40.8501 -74.0608 153° Southeast  Level Estimated
07:32PM 40.8501 -74.0608 153° Southeast  Level Estimated